createdAt,value
2018-07-06T00:00:50.506Z,24.70
2018-07-06T00:03:41.802Z,24.70
2018-07-06T00:06:32.854Z,24.70
2018-07-06T00:09:24.176Z,24.60
2018-07-06T00:12:15.449Z,24.60
2018-07-06T00:15:06.697Z,24.60
2018-07-06T00:17:58.009Z,24.80
2018-07-06T00:20:49.305Z,24.80
2018-07-06T00:23:40.398Z,24.80
2018-07-06T00:26:31.603Z,24.70
2018-07-06T00:29:22.729Z,24.70
2018-07-06T00:32:13.913Z,24.70
2018-07-06T00:35:05.341Z,24.60
2018-07-06T00:37:56.593Z,24.60
2018-07-06T00:40:47.566Z,24.50
2018-07-06T00:43:38.855Z,24.50
2018-07-06T00:46:30.095Z,24.50
2018-07-06T00:49:21.141Z,24.50
2018-07-06T00:54:57.691Z,24.60
2018-07-06T00:57:49.915Z,24.60
2018-07-06T01:00:40.998Z,24.70
2018-07-06T01:03:32.250Z,24.80
2018-07-06T01:11:55.234Z,25.00
2018-07-06T01:14:46.347Z,25.00
2018-07-06T01:17:37.620Z,25.00
2018-07-06T01:20:28.791Z,24.90
2018-07-06T01:23:19.883Z,24.90
2018-07-06T01:26:11.300Z,25.20
2018-07-06T01:29:02.469Z,25.40
2018-07-06T01:31:53.653Z,25.50
2018-07-06T01:34:44.697Z,25.50
2018-07-06T01:37:35.934Z,25.60
2018-07-06T01:40:26.959Z,25.70
2018-07-06T01:43:17.998Z,25.70
2018-07-06T01:46:09.057Z,25.90
2018-07-06T01:49:00.115Z,25.90
2018-07-06T01:51:51.362Z,26.00
2018-07-06T01:54:42.642Z,25.90
2018-07-06T01:57:34.019Z,25.90
2018-07-06T02:00:25.464Z,25.80
2018-07-06T02:03:16.571Z,25.80
2018-07-06T02:06:07.658Z,25.80
2018-07-06T02:08:58.789Z,26.00
2018-07-06T02:11:50.129Z,25.80
2018-07-06T02:14:41.530Z,25.90
2018-07-06T02:17:32.738Z,25.50
2018-07-06T02:20:23.773Z,25.60
2018-07-06T02:23:14.847Z,25.70
2018-07-06T02:26:06.023Z,25.80
2018-07-06T02:28:57.558Z,25.80
2018-07-06T02:31:48.711Z,25.60
2018-07-06T02:34:39.835Z,25.70
2018-07-06T02:37:30.958Z,25.70
2018-07-06T02:40:22.406Z,25.60
2018-07-06T02:43:13.487Z,25.40
2018-07-06T02:46:04.821Z,25.70
2018-07-06T02:48:56.106Z,25.90
2018-07-06T02:51:47.169Z,26.10
2018-07-06T02:54:38.220Z,26.20
2018-07-06T02:57:29.539Z,26.20
2018-07-06T03:00:20.723Z,26.10
2018-07-06T03:03:11.802Z,26.00
2018-07-06T03:08:48.405Z,26.20
2018-07-06T03:11:39.526Z,26.10
2018-07-06T03:17:16.323Z,26.00
2018-07-06T03:20:07.615Z,25.90
2018-07-06T03:22:58.872Z,25.90
2018-07-06T03:25:50.059Z,25.90
2018-07-06T03:28:41.551Z,25.90
2018-07-06T03:31:32.297Z,25.70
2018-07-06T03:34:23.411Z,25.60
2018-07-06T03:37:14.398Z,25.90
2018-07-06T03:40:05.673Z,25.80
2018-07-06T03:42:56.938Z,25.90
2018-07-06T03:45:48.044Z,25.90
2018-07-06T03:48:39.299Z,25.80
2018-07-06T03:51:30.519Z,25.90
2018-07-06T03:54:21.537Z,25.90
2018-07-06T03:57:12.828Z,25.90
2018-07-06T04:00:03.862Z,25.70
2018-07-06T04:02:54.936Z,25.60
2018-07-06T04:05:46.110Z,25.70
2018-07-06T04:08:37.307Z,25.70
2018-07-06T04:11:28.617Z,25.70
2018-07-06T04:14:19.670Z,25.60
2018-07-06T04:17:11.197Z,25.70
2018-07-06T04:20:02.239Z,25.50
2018-07-06T04:25:39.049Z,25.70
2018-07-06T04:28:30.331Z,25.80
2018-07-06T04:31:21.475Z,25.90
2018-07-06T04:34:12.667Z,25.90
2018-07-06T04:37:03.882Z,25.80
2018-07-06T04:39:55.022Z,25.60
2018-07-06T04:42:46.281Z,25.70
2018-07-06T04:45:37.282Z,25.70
2018-07-06T04:48:28.601Z,25.70
2018-07-06T04:51:19.572Z,25.80
2018-07-06T04:54:10.890Z,26.00
2018-07-06T04:59:47.680Z,25.90
2018-07-06T05:02:38.979Z,25.90
2018-07-06T05:05:30.291Z,25.90
2018-07-06T05:08:21.614Z,25.90
2018-07-06T05:11:12.775Z,26.00
2018-07-06T05:14:04.242Z,26.20
2018-07-06T05:16:55.518Z,26.50
2018-07-06T05:19:46.704Z,26.50
2018-07-06T05:22:37.919Z,26.40
2018-07-06T05:25:29.203Z,26.60
2018-07-06T05:28:20.426Z,26.60
2018-07-06T05:31:11.714Z,26.30
2018-07-06T05:34:02.725Z,26.00
2018-07-06T05:36:54.064Z,25.80
2018-07-06T05:39:45.388Z,26.00
2018-07-06T05:42:36.551Z,26.10
2018-07-06T05:45:27.847Z,26.30
2018-07-06T05:48:19.222Z,26.50
2018-07-06T05:51:10.449Z,26.70
2018-07-06T05:54:01.597Z,26.90
2018-07-06T05:56:52.874Z,27.10
2018-07-06T05:59:44.073Z,27.20
2018-07-06T06:02:35.386Z,27.40
2018-07-06T06:05:26.647Z,27.60
2018-07-06T06:07:59.216Z,27.60
2018-07-06T06:10:26.982Z,27.80
2018-07-06T06:12:54.683Z,27.80
2018-07-06T06:17:50.162Z,27.80
2018-07-06T06:20:17.873Z,27.80
2018-07-06T06:22:45.567Z,28.00
2018-07-06T06:25:13.441Z,28.10
2018-07-06T06:27:41.170Z,28.30
2018-07-06T06:30:09.127Z,28.40
2018-07-06T06:32:37.172Z,28.40
2018-07-06T06:35:05.016Z,28.50
2018-07-06T06:37:33.018Z,28.40
2018-07-06T06:40:00.765Z,28.50
2018-07-06T06:42:28.530Z,28.50
2018-07-06T06:47:26.275Z,28.70
2018-07-06T06:49:53.981Z,28.80
2018-07-06T06:54:49.591Z,28.90
2018-07-06T06:57:17.325Z,29.10
2018-07-06T06:59:45.067Z,29.30
2018-07-06T07:02:12.827Z,29.40
2018-07-06T07:04:40.575Z,29.40
2018-07-06T07:07:08.267Z,29.40
2018-07-06T07:12:03.755Z,29.60
2018-07-06T07:14:31.478Z,29.70
2018-07-06T07:16:59.506Z,29.70
2018-07-06T07:19:27.255Z,29.90
2018-07-06T07:21:55.812Z,29.90
2018-07-06T07:24:23.610Z,30.10
2018-07-06T07:26:51.359Z,30.30
2018-07-06T07:29:20.073Z,30.10
2018-07-06T07:31:47.813Z,29.70
2018-07-06T07:34:15.798Z,29.70
2018-07-06T07:36:43.574Z,29.60
2018-07-06T07:39:11.287Z,31.80
2018-07-06T07:41:39.040Z,30.40
2018-07-06T07:44:06.829Z,31.50
2018-07-06T07:46:34.590Z,31.40
2018-07-06T07:49:02.294Z,31.90
2018-07-06T07:52:12.602Z,31.70
2018-07-06T07:54:49.262Z,31.60
2018-07-06T07:57:17.378Z,31.50
2018-07-06T07:59:46.970Z,31.60
2018-07-06T08:02:16.253Z,31.60
2018-07-06T08:04:44.479Z,33.40
2018-07-06T08:07:12.204Z,32.30
2018-07-06T08:09:39.982Z,32.70
2018-07-06T08:12:07.737Z,33.10
2018-07-06T08:14:36.021Z,35.40
2018-07-06T08:17:03.991Z,33.80
2018-07-06T08:19:31.719Z,33.90
2018-07-06T08:21:59.923Z,33.90
2018-07-06T08:24:27.644Z,33.60
2018-07-06T08:29:23.073Z,33.80
2018-07-06T08:31:50.792Z,34.00
2018-07-06T08:34:35.825Z,33.90
2018-07-06T08:37:50.873Z,33.90
2018-07-06T08:40:19.421Z,33.70
2018-07-06T08:42:50.084Z,35.40
2018-07-06T08:45:17.843Z,33.40
2018-07-06T08:47:46.899Z,33.40
2018-07-06T08:50:14.742Z,33.40
2018-07-06T08:52:43.663Z,33.40
2018-07-06T08:55:11.397Z,33.60
2018-07-06T08:57:40.115Z,33.80
2018-07-06T09:00:09.319Z,34.00
2018-07-06T09:02:37.098Z,32.60
2018-07-06T09:05:05.523Z,34.00
2018-07-06T09:10:01.523Z,34.30
2018-07-06T09:12:29.221Z,34.10
2018-07-06T09:14:57.462Z,33.90
2018-07-06T09:17:25.221Z,34.00
2018-07-06T09:19:54.015Z,34.30
2018-07-06T09:22:21.630Z,34.50
2018-07-06T09:27:18.162Z,34.60
2018-07-06T09:29:45.853Z,34.70
2018-07-06T09:32:13.539Z,34.70
2018-07-06T09:34:41.562Z,34.30
2018-07-06T09:37:09.277Z,33.60
2018-07-06T09:39:37.601Z,33.30
2018-07-06T09:42:05.298Z,33.70
2018-07-06T09:44:32.999Z,33.80
2018-07-06T09:47:00.754Z,34.00
2018-07-06T09:49:28.425Z,34.00
2018-07-06T09:51:56.106Z,34.00
2018-07-06T09:56:51.524Z,34.40
2018-07-06T09:59:19.219Z,34.60
2018-07-06T10:01:46.894Z,35.10
2018-07-06T10:04:14.634Z,35.10
2018-07-06T10:06:42.258Z,35.40
2018-07-06T10:09:10.535Z,35.80
2018-07-06T10:11:38.193Z,36.20
2018-07-06T10:14:05.905Z,36.60
2018-07-06T10:16:33.604Z,36.60
2018-07-06T10:19:01.306Z,37.00
2018-07-06T10:21:28.985Z,37.40
2018-07-06T10:23:56.742Z,36.50
2018-07-06T10:26:24.603Z,36.30
2018-07-06T10:29:02.047Z,36.40
2018-07-06T10:32:26.838Z,36.70
2018-07-06T10:34:54.726Z,37.20
2018-07-06T10:37:22.658Z,37.50
2018-07-06T10:39:51.079Z,37.80
2018-07-06T10:42:20.248Z,38.20
2018-07-06T10:44:47.975Z,38.30
2018-07-06T10:47:15.685Z,38.00
2018-07-06T10:52:12.674Z,38.50
2018-07-06T10:54:42.089Z,38.80
2018-07-06T10:57:09.820Z,39.10
2018-07-06T10:59:37.535Z,39.20
2018-07-06T11:02:05.356Z,39.50
2018-07-06T11:04:33.115Z,39.20
2018-07-06T11:07:00.784Z,39.40
2018-07-06T11:09:28.463Z,39.80
2018-07-06T11:11:56.239Z,40.00
2018-07-06T11:14:24.157Z,40.30
2018-07-06T11:16:53.369Z,40.10
2018-07-06T11:19:21.050Z,40.10
2018-07-06T11:21:48.737Z,40.20
2018-07-06T11:24:16.524Z,40.10
2018-07-06T11:26:44.229Z,40.40
2018-07-06T11:29:11.926Z,40.20
2018-07-06T11:31:39.613Z,40.40
2018-07-06T11:34:07.980Z,40.50
2018-07-06T11:36:35.863Z,40.60
2018-07-06T11:39:04.803Z,40.70
2018-07-06T11:41:32.675Z,41.00
2018-07-06T11:44:00.396Z,41.10
2018-07-06T11:46:28.072Z,41.20
2018-07-06T11:48:55.766Z,41.40
2018-07-06T11:51:23.474Z,41.20
2018-07-06T11:53:51.151Z,41.50
2018-07-06T11:56:18.902Z,41.60
2018-07-06T11:58:46.596Z,41.80
2018-07-06T12:01:14.463Z,42.00
2018-07-06T12:03:43.734Z,42.10
2018-07-06T12:06:12.226Z,42.60
2018-07-06T12:08:41.250Z,42.60
2018-07-06T12:13:37.044Z,42.50
2018-07-06T12:16:05.660Z,42.50
2018-07-06T12:18:34.246Z,42.10
2018-07-06T12:21:02.091Z,42.30
2018-07-06T12:23:29.749Z,42.40
2018-07-06T12:25:57.414Z,42.80
2018-07-06T12:28:25.182Z,43.30
2018-07-06T12:30:52.887Z,43.70
2018-07-06T12:33:20.612Z,43.90
2018-07-06T12:35:48.749Z,43.90
2018-07-06T12:38:16.524Z,43.90
2018-07-06T12:40:44.442Z,43.70
2018-07-06T12:43:12.242Z,43.80
2018-07-06T12:45:40.047Z,43.70
2018-07-06T12:48:07.949Z,43.90
2018-07-06T12:50:36.829Z,44.00
2018-07-06T12:55:34.921Z,44.10
2018-07-06T12:58:03.060Z,44.30
2018-07-06T13:00:31.955Z,44.50
2018-07-06T13:03:00.572Z,44.60
2018-07-06T13:05:28.391Z,44.50
2018-07-06T13:07:56.281Z,44.60
2018-07-06T13:10:24.027Z,44.40
2018-07-06T13:15:19.438Z,44.20
2018-07-06T13:17:47.171Z,44.00
2018-07-06T13:20:14.979Z,44.00
2018-07-06T13:22:42.711Z,43.80
2018-07-06T13:25:10.565Z,43.70
2018-07-06T13:27:38.335Z,43.70
2018-07-06T13:30:06.053Z,43.90
2018-07-06T13:32:34.938Z,43.70
2018-07-06T13:35:02.693Z,43.70
2018-07-06T13:37:30.445Z,43.70
2018-07-06T13:39:58.499Z,43.60
2018-07-06T13:42:26.250Z,43.30
2018-07-06T13:44:54.195Z,43.00
2018-07-06T13:47:21.953Z,43.00
2018-07-06T13:49:49.812Z,42.90
2018-07-06T13:52:17.550Z,42.70
2018-07-06T13:54:45.476Z,42.90
2018-07-06T13:57:13.229Z,42.90
2018-07-06T13:59:40.948Z,42.70
2018-07-06T14:02:08.991Z,42.30
2018-07-06T14:04:36.715Z,41.80
2018-07-06T14:07:04.654Z,42.00
2018-07-06T14:09:32.583Z,42.20
2018-07-06T14:14:28.067Z,42.60
2018-07-06T14:16:55.873Z,42.70
2018-07-06T14:21:52.219Z,43.20
2018-07-06T14:24:19.924Z,43.20
2018-07-06T14:26:47.638Z,43.30
2018-07-06T14:29:15.420Z,43.50
2018-07-06T14:31:43.139Z,43.50
2018-07-06T14:34:10.890Z,43.40
2018-07-06T14:39:07.260Z,43.80
2018-07-06T14:41:35.001Z,44.00
2018-07-06T14:44:02.787Z,44.10
2018-07-06T14:46:30.549Z,44.00
2018-07-06T14:48:58.241Z,44.20
2018-07-06T14:51:26.800Z,44.10
2018-07-06T14:53:54.590Z,44.30
2018-07-06T14:56:22.953Z,44.50
2018-07-06T14:58:50.706Z,44.40
2018-07-06T15:01:18.403Z,44.50
2018-07-06T15:03:46.178Z,44.50
2018-07-06T15:06:13.828Z,44.50
2018-07-06T15:08:41.606Z,44.10
2018-07-06T15:11:09.274Z,43.80
2018-07-06T15:13:36.977Z,44.20
2018-07-06T15:16:05.259Z,44.70
2018-07-06T15:18:32.881Z,44.80
2018-07-06T15:21:00.603Z,44.70
2018-07-06T15:23:28.279Z,44.80
2018-07-06T15:25:56.006Z,44.80
2018-07-06T15:28:23.695Z,44.70
2018-07-06T15:30:51.379Z,44.00
2018-07-06T15:33:19.070Z,43.70
2018-07-06T15:35:46.725Z,43.70
2018-07-06T15:38:14.415Z,43.90
2018-07-06T15:40:42.088Z,43.70
2018-07-06T15:43:09.854Z,43.10
2018-07-06T15:45:37.520Z,43.20
2018-07-06T15:48:05.180Z,43.10
2018-07-06T15:50:32.891Z,43.10
2018-07-06T15:53:00.570Z,43.10
2018-07-06T15:55:28.292Z,43.10
2018-07-06T15:57:55.956Z,43.20
2018-07-06T16:00:23.636Z,43.10
2018-07-06T16:05:19.073Z,42.90
2018-07-06T16:07:46.814Z,42.80
2018-07-06T16:10:14.488Z,42.00
2018-07-06T16:12:42.160Z,42.00
2018-07-06T16:15:09.866Z,41.60
2018-07-06T16:17:37.546Z,41.70
2018-07-06T16:20:05.299Z,40.90
2018-07-06T16:22:32.970Z,40.60
2018-07-06T16:25:00.653Z,40.50
2018-07-06T16:27:29.324Z,40.40
2018-07-06T16:29:57.137Z,40.40
2018-07-06T16:32:26.839Z,40.30
2018-07-06T16:34:56.775Z,39.90
2018-07-06T16:37:25.628Z,39.80
2018-07-06T16:39:53.426Z,39.50
2018-07-06T16:42:21.135Z,39.40
2018-07-06T16:44:48.974Z,39.30
2018-07-06T16:47:16.698Z,39.00
2018-07-06T16:49:44.365Z,38.80
2018-07-06T16:52:12.700Z,39.00
2018-07-06T16:54:40.372Z,39.10
2018-07-06T16:57:08.069Z,38.90
2018-07-06T16:59:35.746Z,39.70
2018-07-06T17:02:03.439Z,39.40
2018-07-06T17:04:31.124Z,39.40
2018-07-06T17:06:59.950Z,39.30
2018-07-06T17:09:27.755Z,39.00
2018-07-06T17:11:55.474Z,39.00
2018-07-06T17:14:23.172Z,39.20
2018-07-06T17:16:50.863Z,39.20
2018-07-06T17:19:19.899Z,39.10
2018-07-06T17:21:48.961Z,38.80
2018-07-06T17:24:16.625Z,39.00
2018-07-06T17:26:44.287Z,38.90
2018-07-06T17:29:11.955Z,38.70
2018-07-06T17:31:39.648Z,38.50
2018-07-06T17:36:35.110Z,38.30
2018-07-06T17:39:03.333Z,38.00
2018-07-06T17:41:31.004Z,38.00
2018-07-06T17:43:58.723Z,38.00
2018-07-06T17:46:26.789Z,38.10
2018-07-06T17:48:55.207Z,38.10
2018-07-06T17:51:22.879Z,38.10
2018-07-06T17:53:52.363Z,38.10
2018-07-06T17:56:20.105Z,38.20
2018-07-06T17:58:47.751Z,38.10
2018-07-06T18:01:16.124Z,38.10
2018-07-06T18:03:43.828Z,38.20
2018-07-06T18:08:39.263Z,38.00
2018-07-06T18:11:06.948Z,37.80
2018-07-06T18:13:34.662Z,37.70
2018-07-06T18:16:02.419Z,37.70
2018-07-06T18:18:30.197Z,37.90
2018-07-06T18:20:58.078Z,37.80
2018-07-06T18:23:26.865Z,37.90
2018-07-06T18:25:54.541Z,37.80
2018-07-06T18:28:22.206Z,37.60
2018-07-06T18:30:49.912Z,37.40
2018-07-06T18:33:17.833Z,37.30
2018-07-06T18:35:45.518Z,37.30
2018-07-06T18:38:13.215Z,37.50
2018-07-06T18:40:42.415Z,37.50
2018-07-06T18:43:10.095Z,37.40
2018-07-06T18:45:38.596Z,37.30
2018-07-06T18:48:06.380Z,37.20
2018-07-06T18:50:34.669Z,37.20
2018-07-06T18:53:02.388Z,36.70
2018-07-06T18:57:57.842Z,36.40
2018-07-06T19:00:25.927Z,36.20
2018-07-06T19:02:53.858Z,36.10
2018-07-06T19:05:21.590Z,36.00
2018-07-06T19:07:49.332Z,35.90
2018-07-06T19:10:17.057Z,35.80
2018-07-06T19:12:44.862Z,35.80
2018-07-06T19:15:14.294Z,35.50
2018-07-06T19:17:42.364Z,35.20
2018-07-06T19:20:15.697Z,34.80
2018-07-06T19:22:43.605Z,34.50
2018-07-06T19:25:11.498Z,34.10
2018-07-06T19:27:39.211Z,33.70
2018-07-06T19:30:07.161Z,33.50
2018-07-06T19:32:35.114Z,33.30
2018-07-06T19:35:06.387Z,32.90
2018-07-06T19:37:35.028Z,32.90
2018-07-06T19:40:02.767Z,33.00
2018-07-06T19:42:30.448Z,33.00
2018-07-06T19:44:58.139Z,33.00
2018-07-06T19:47:25.825Z,33.00
2018-07-06T19:49:53.519Z,32.90
2018-07-06T19:52:21.344Z,32.90
2018-07-06T19:54:49.015Z,33.00
2018-07-06T19:57:16.686Z,33.00
2018-07-06T19:59:45.115Z,32.80
2018-07-06T20:02:12.838Z,32.80
2018-07-06T20:04:40.517Z,32.70
2018-07-06T20:07:08.175Z,32.40
2018-07-06T20:09:35.846Z,32.30
2018-07-06T20:12:03.550Z,32.30
2018-07-06T20:14:31.225Z,32.10
2018-07-06T20:16:59.507Z,32.10
2018-07-06T20:19:27.158Z,32.10
2018-07-06T20:21:54.835Z,31.90
2018-07-06T20:24:22.482Z,31.80
2018-07-06T20:26:50.148Z,31.60
2018-07-06T20:29:17.859Z,31.00
2018-07-06T20:31:45.551Z,30.70
2018-07-06T20:34:13.221Z,30.60
2018-07-06T20:36:41.019Z,30.30
2018-07-06T20:39:08.601Z,30.30
2018-07-06T20:41:37.851Z,30.10
2018-07-06T20:44:05.574Z,29.90
2018-07-06T20:46:33.322Z,29.80
2018-07-06T20:49:01.035Z,29.70
2018-07-06T20:53:57.424Z,29.40
2018-07-06T20:56:27.581Z,29.20
2018-07-06T20:58:55.318Z,29.10
2018-07-06T21:01:24.094Z,29.10
2018-07-06T21:03:52.523Z,29.00
2018-07-06T21:06:20.516Z,28.80
2018-07-06T21:13:43.665Z,28.70
2018-07-06T21:16:11.367Z,28.50
2018-07-06T21:18:39.089Z,28.40
2018-07-06T21:21:06.806Z,28.20
2018-07-06T21:23:34.469Z,27.80
2018-07-06T21:26:02.211Z,27.60
2018-07-06T21:28:29.881Z,27.50
2018-07-06T21:30:57.521Z,27.50
2018-07-06T21:33:25.174Z,27.30
2018-07-06T21:35:52.844Z,27.30
2018-07-06T21:38:20.492Z,27.00
2018-07-06T21:40:48.164Z,26.80
2018-07-06T21:43:15.903Z,26.80
2018-07-06T21:45:43.675Z,27.00
2018-07-06T21:48:11.376Z,26.80
2018-07-06T21:50:39.079Z,26.70
2018-07-06T21:53:06.796Z,26.70
2018-07-06T21:55:34.455Z,26.70
2018-07-06T21:58:02.155Z,26.80
2018-07-06T22:00:39.274Z,26.80
2018-07-06T22:03:08.775Z,26.80
2018-07-06T22:05:37.335Z,26.80
2018-07-06T22:08:05.963Z,26.50
2018-07-06T22:10:34.706Z,26.40
2018-07-06T22:13:02.628Z,26.20
2018-07-06T22:15:38.802Z,26.40
2018-07-06T22:18:06.529Z,26.50
2018-07-06T22:20:34.219Z,26.20
2018-07-06T22:23:01.936Z,26.10
2018-07-06T22:25:29.669Z,25.90
2018-07-06T22:27:57.363Z,25.80
2018-07-06T22:30:25.044Z,25.80
2018-07-06T22:32:52.767Z,25.70
2018-07-06T22:35:20.461Z,25.40
2018-07-06T22:37:48.132Z,25.40
2018-07-06T22:40:16.170Z,25.40
2018-07-06T22:42:44.047Z,25.50
2018-07-06T22:45:12.122Z,25.40
2018-07-06T22:47:39.970Z,25.50
2018-07-06T22:50:07.698Z,25.40
2018-07-06T22:55:03.321Z,25.30
2018-07-06T22:57:34.034Z,25.30
2018-07-06T23:00:01.738Z,25.30
2018-07-06T23:02:29.679Z,25.30
2018-07-06T23:04:57.375Z,25.20
2018-07-06T23:07:25.056Z,25.10
2018-07-06T23:12:20.967Z,25.20
2018-07-06T23:14:48.658Z,25.30
2018-07-06T23:19:44.075Z,25.40
2018-07-06T23:22:14.713Z,25.50
2018-07-06T23:24:42.378Z,25.50
2018-07-06T23:27:10.254Z,25.40
2018-07-06T23:29:37.983Z,25.30
2018-07-06T23:32:05.651Z,25.20
2018-07-06T23:34:33.372Z,25.00
2018-07-06T23:37:01.042Z,25.10
2018-07-06T23:39:28.691Z,25.10
2018-07-06T23:41:56.388Z,25.20
2018-07-06T23:46:51.761Z,25.10
2018-07-06T23:49:19.448Z,25.00
2018-07-06T23:51:47.123Z,25.00
2018-07-06T23:54:14.888Z,24.80
2018-07-06T23:56:42.634Z,24.80
2018-07-06T23:59:10.598Z,24.90
